createdAt,value
2022-08-28T00:03:36.774Z,22.16
2022-08-28T00:06:05.656Z,22.17
2022-08-28T00:08:33.280Z,22.16
2022-08-28T00:11:01.060Z,22.22
2022-08-28T00:13:28.042Z,22.21
2022-08-28T00:15:58.578Z,22.26
2022-08-28T00:18:26.686Z,22.25
2022-08-28T00:20:54.437Z,22.29
2022-08-28T00:23:25.562Z,22.28
2022-08-28T00:26:06.406Z,22.34
2022-08-28T00:28:33.502Z,22.29
2022-08-28T00:31:00.678Z,22.28
2022-08-28T00:33:31.497Z,22.32
2022-08-28T00:35:59.084Z,22.28
2022-08-28T00:38:28.653Z,22.30
2022-08-28T00:40:59.797Z,22.20
2022-08-28T00:43:56.763Z,22.00
2022-08-28T00:46:24.275Z,21.81
2022-08-28T00:48:51.312Z,21.88
2022-08-28T00:51:38.654Z,21.90
2022-08-28T00:54:08.398Z,21.92
2022-08-28T00:56:38.179Z,21.94
2022-08-28T00:59:10.392Z,21.98
2022-08-28T01:01:39.377Z,22.00
2022-08-28T01:04:06.982Z,21.99
2022-08-28T01:06:35.680Z,22.01
2022-08-28T01:09:03.571Z,21.90
2022-08-28T01:11:31.976Z,21.70
2022-08-28T01:14:01.906Z,21.54
2022-08-28T01:16:34.097Z,21.52
2022-08-28T01:19:04.473Z,21.56
2022-08-28T01:21:45.144Z,21.43
2022-08-28T01:24:16.415Z,21.38
2022-08-28T01:26:43.894Z,21.39
2022-08-28T01:29:12.188Z,21.36
2022-08-28T01:31:40.727Z,21.42
2022-08-28T01:34:10.066Z,21.16
2022-08-28T01:36:37.083Z,21.19
2022-08-28T01:39:09.998Z,21.25
2022-08-28T01:41:46.508Z,21.23
2022-08-28T01:44:14.138Z,20.95
2022-08-28T01:46:45.642Z,20.93
2022-08-28T01:49:12.801Z,20.90
2022-08-28T01:51:41.318Z,20.77
2022-08-28T01:54:10.198Z,20.95
2022-08-28T01:56:40.659Z,20.89
2022-08-28T01:59:09.488Z,21.04
2022-08-28T02:01:36.778Z,21.18
2022-08-28T02:04:05.142Z,21.27
2022-08-28T02:06:32.978Z,21.31
2022-08-28T02:09:00.633Z,21.35
2022-08-28T02:11:30.623Z,21.41
2022-08-28T02:13:57.763Z,21.51
2022-08-28T02:16:24.906Z,21.52
2022-08-28T02:18:52.421Z,21.43
2022-08-28T02:21:19.472Z,21.51
2022-08-28T02:23:46.564Z,21.47
2022-08-28T02:26:15.152Z,21.27
2022-08-28T02:28:43.562Z,21.19
2022-08-28T02:31:11.128Z,21.20
2022-08-28T02:33:43.845Z,21.09
2022-08-28T02:36:13.582Z,20.97
2022-08-28T02:38:40.923Z,20.68
2022-08-28T02:41:07.949Z,20.74
2022-08-28T02:43:35.552Z,20.52
2022-08-28T02:46:03.542Z,20.37
2022-08-28T02:48:33.211Z,20.38
2022-08-28T02:51:03.132Z,20.08
2022-08-28T02:53:30.815Z,20.24
2022-08-28T02:55:59.042Z,20.22
2022-08-28T02:58:27.482Z,20.25
2022-08-28T03:00:54.834Z,20.24
2022-08-28T03:03:21.862Z,20.28
2022-08-28T03:05:48.843Z,20.40
2022-08-28T03:08:16.322Z,20.50
2022-08-28T03:10:43.283Z,20.63
2022-08-28T03:13:11.411Z,20.69
2022-08-28T03:15:55.736Z,20.78
2022-08-28T03:18:25.394Z,20.83
2022-08-28T03:20:53.924Z,20.88
2022-08-28T03:23:26.578Z,20.85
2022-08-28T03:25:54.515Z,20.82
2022-08-28T03:28:21.537Z,20.69
2022-08-28T03:30:49.947Z,20.47
2022-08-28T03:33:17.716Z,20.57
2022-08-28T03:35:44.645Z,20.61
2022-08-28T03:38:12.147Z,20.73
2022-08-28T03:40:42.666Z,20.83
2022-08-28T03:43:15.045Z,20.78
2022-08-28T03:45:52.173Z,20.70
2022-08-28T03:48:20.273Z,20.72
2022-08-28T03:50:47.989Z,20.50
2022-08-28T03:53:16.373Z,20.52
2022-08-28T03:55:43.489Z,20.54
2022-08-28T03:58:10.523Z,20.62
2022-08-28T04:00:46.876Z,20.74
2022-08-28T04:03:14.362Z,20.78
2022-08-28T04:05:42.835Z,20.89
2022-08-28T04:08:14.320Z,20.95
2022-08-28T04:10:42.655Z,20.95
2022-08-28T04:13:10.694Z,20.90
2022-08-28T04:15:37.824Z,20.91
2022-08-28T04:18:05.232Z,20.93
2022-08-28T04:20:32.413Z,21.04
2022-08-28T04:23:00.445Z,21.12
2022-08-28T04:25:27.454Z,21.10
2022-08-28T04:27:54.443Z,21.25
2022-08-28T04:30:21.465Z,21.42
2022-08-28T04:32:49.144Z,21.63
2022-08-28T04:35:16.842Z,21.89
2022-08-28T04:37:46.437Z,22.03
2022-08-28T04:40:16.004Z,22.13
2022-08-28T04:42:45.280Z,22.00
2022-08-28T04:45:12.514Z,22.06
2022-08-28T04:47:39.614Z,21.99
2022-08-28T04:50:11.704Z,22.04
2022-08-28T04:52:38.844Z,22.31
2022-08-28T04:55:06.276Z,22.26
2022-08-28T04:57:36.256Z,22.50
2022-08-28T05:00:07.044Z,22.74
2022-08-28T05:02:34.229Z,22.65
2022-08-28T05:05:01.255Z,22.73
2022-08-28T05:07:28.646Z,22.88
2022-08-28T05:09:55.987Z,22.92
2022-08-28T05:12:23.104Z,23.09
2022-08-28T05:14:51.675Z,23.26
2022-08-28T05:17:18.825Z,23.53
2022-08-28T05:19:45.814Z,23.88
2022-08-28T05:22:12.894Z,23.95
2022-08-28T05:24:40.297Z,24.04
2022-08-28T05:27:08.795Z,24.47
2022-08-28T05:29:35.995Z,25.02
2022-08-28T05:32:03.802Z,25.25
2022-08-28T05:34:31.514Z,25.40
2022-08-28T05:36:58.826Z,25.70
2022-08-28T05:39:26.043Z,26.02
2022-08-28T05:41:53.305Z,26.53
2022-08-28T05:44:21.150Z,27.00
2022-08-28T05:46:48.586Z,27.45
2022-08-28T05:49:17.923Z,27.84
2022-08-28T05:51:45.643Z,28.13
2022-08-28T05:54:12.966Z,28.42
2022-08-28T05:56:41.173Z,28.70
2022-08-28T05:59:09.822Z,29.00
2022-08-28T06:01:49.518Z,29.29
2022-08-28T06:04:21.951Z,29.53
2022-08-28T06:06:49.657Z,29.67
2022-08-28T06:09:28.118Z,29.74
2022-08-28T06:11:56.838Z,29.81
2022-08-28T06:14:24.391Z,30.00
2022-08-28T06:16:55.221Z,30.14
2022-08-28T06:19:30.336Z,30.29
2022-08-28T06:21:59.679Z,30.65
2022-08-28T06:24:28.477Z,30.87
2022-08-28T06:26:58.716Z,31.27
2022-08-28T06:29:27.632Z,31.39
2022-08-28T06:31:58.309Z,31.66
2022-08-28T06:34:29.669Z,31.89
2022-08-28T06:36:56.662Z,31.92
2022-08-28T06:39:27.293Z,32.11
2022-08-28T06:41:56.410Z,32.37
2022-08-28T06:44:23.630Z,32.38
2022-08-28T06:46:53.088Z,32.68
2022-08-28T06:49:20.928Z,32.91
2022-08-28T06:51:48.138Z,32.82
2022-08-28T06:54:22.178Z,33.00
2022-08-28T06:56:51.272Z,33.17
2022-08-28T06:59:18.255Z,33.29
2022-08-28T07:01:45.418Z,33.50
2022-08-28T07:04:14.718Z,33.70
2022-08-28T07:06:47.022Z,33.96
2022-08-28T07:09:15.375Z,34.04
2022-08-28T07:11:48.840Z,34.16
2022-08-28T07:14:18.841Z,34.17
2022-08-28T07:16:46.154Z,34.21
2022-08-28T07:19:13.989Z,34.19
2022-08-28T07:21:43.614Z,34.25
2022-08-28T07:24:12.477Z,34.47
2022-08-28T07:26:41.238Z,34.59
2022-08-28T07:29:10.288Z,34.47
2022-08-28T07:31:45.168Z,34.39
2022-08-28T07:34:13.737Z,34.71
2022-08-28T07:36:41.445Z,34.70
2022-08-28T07:39:10.037Z,34.86
2022-08-28T07:41:40.278Z,35.02
2022-08-28T07:44:30.674Z,35.06
2022-08-28T07:47:00.436Z,35.39
2022-08-28T07:49:27.925Z,35.38
2022-08-28T07:51:54.933Z,35.67
2022-08-28T07:54:23.015Z,35.69
2022-08-28T07:56:50.355Z,35.62
2022-08-28T07:59:19.156Z,35.57
2022-08-28T08:01:48.835Z,35.72
2022-08-28T08:04:16.713Z,35.23
2022-08-28T08:06:44.555Z,35.25
2022-08-28T08:09:14.754Z,35.18
2022-08-28T08:11:42.853Z,35.45
2022-08-28T08:14:10.500Z,35.49
2022-08-28T08:16:40.577Z,35.72
2022-08-28T08:19:10.334Z,35.73
2022-08-28T08:21:38.747Z,35.43
2022-08-28T08:24:06.319Z,35.23
2022-08-28T08:26:34.207Z,35.01
2022-08-28T08:29:01.860Z,34.97
2022-08-28T08:31:35.234Z,35.05
2022-08-28T08:34:04.386Z,35.26
2022-08-28T08:36:33.644Z,35.41
2022-08-28T08:39:01.540Z,35.52
2022-08-28T08:41:50.107Z,35.52
2022-08-28T08:44:33.513Z,35.54
2022-08-28T08:47:20.355Z,35.21
2022-08-28T08:49:56.365Z,35.16
2022-08-28T08:52:40.954Z,35.04
2022-08-28T08:55:19.814Z,34.89
2022-08-28T08:57:51.607Z,34.89
2022-08-28T09:00:20.034Z,35.04
2022-08-28T09:02:56.134Z,35.30
2022-08-28T09:05:38.686Z,35.45
2022-08-28T09:08:12.712Z,35.66
2022-08-28T09:10:50.147Z,35.86
2022-08-28T09:13:52.538Z,35.77
2022-08-28T09:16:42.618Z,35.83
2022-08-28T09:19:13.045Z,36.02
2022-08-28T09:21:45.289Z,36.24
2022-08-28T09:24:24.364Z,36.23
2022-08-28T09:26:57.595Z,36.11
2022-08-28T09:29:35.335Z,36.16
2022-08-28T09:32:20.836Z,36.01
2022-08-28T09:35:06.518Z,36.17
2022-08-28T09:37:35.096Z,36.14
2022-08-28T09:40:23.292Z,36.03
2022-08-28T09:43:27.246Z,36.20
2022-08-28T09:46:19.010Z,36.00
2022-08-28T09:48:48.974Z,35.82
2022-08-28T09:51:21.997Z,35.92
2022-08-28T09:54:03.386Z,35.78
2022-08-28T09:56:34.416Z,35.78
2022-08-28T09:59:10.510Z,36.08
2022-08-28T10:01:59.183Z,36.09
2022-08-28T10:04:46.208Z,36.34
2022-08-28T10:07:15.926Z,36.28
2022-08-28T10:10:10.189Z,36.45
2022-08-28T10:12:55.698Z,36.51
2022-08-28T10:15:30.767Z,36.40
2022-08-28T10:18:18.149Z,36.59
2022-08-28T10:20:48.305Z,36.65
2022-08-28T10:23:17.724Z,36.64
2022-08-28T10:26:18.375Z,36.51
2022-08-28T10:29:13.146Z,36.58
2022-08-28T10:31:45.977Z,36.48
2022-08-28T10:34:35.832Z,36.37
2022-08-28T10:37:31.762Z,36.69
2022-08-28T10:40:04.701Z,36.56
2022-08-28T10:42:42.401Z,36.53
2022-08-28T10:45:32.323Z,36.54
2022-08-28T10:48:10.397Z,36.54
2022-08-28T10:50:47.303Z,36.50
2022-08-28T10:53:23.533Z,36.65
2022-08-28T10:55:54.133Z,36.73
2022-08-28T10:58:25.256Z,36.70
2022-08-28T11:01:01.367Z,36.73
2022-08-28T11:03:35.291Z,36.51
2022-08-28T11:06:11.787Z,36.22
2022-08-28T11:08:40.070Z,36.26
2022-08-28T11:11:13.613Z,36.31
2022-08-28T11:13:51.542Z,36.07
2022-08-28T11:16:23.470Z,36.00
2022-08-28T11:19:27.833Z,35.88
2022-08-28T11:22:14.123Z,35.88
2022-08-28T11:24:56.879Z,35.92
2022-08-28T11:27:33.443Z,36.01
2022-08-28T11:30:29.113Z,35.77
2022-08-28T11:33:00.036Z,35.84
2022-08-28T11:35:29.706Z,35.79
2022-08-28T11:37:58.435Z,35.88
2022-08-28T11:40:31.962Z,35.92
2022-08-28T11:43:17.664Z,35.61
2022-08-28T11:45:47.364Z,35.52
2022-08-28T11:48:43.378Z,35.40
2022-08-28T11:51:53.657Z,35.42
2022-08-28T11:54:32.754Z,35.34
2022-08-28T11:57:07.326Z,35.29
2022-08-28T11:59:51.764Z,35.24
2022-08-28T12:02:37.301Z,35.41
2022-08-28T12:05:09.514Z,35.10
2022-08-28T12:07:42.474Z,34.93
2022-08-28T12:10:27.545Z,34.91
2022-08-28T12:12:54.711Z,35.17
2022-08-28T12:15:27.353Z,35.22
2022-08-28T12:18:27.932Z,35.23
2022-08-28T12:20:59.945Z,35.46
2022-08-28T12:23:37.772Z,35.52
2022-08-28T12:26:25.229Z,35.59
2022-08-28T12:29:14.265Z,35.57
2022-08-28T12:32:11.572Z,35.52
2022-08-28T12:35:04.679Z,35.55
2022-08-28T12:37:51.117Z,35.52
2022-08-28T12:40:29.719Z,35.48
2022-08-28T12:43:01.252Z,35.54
2022-08-28T12:45:42.730Z,35.37
2022-08-28T12:48:25.065Z,35.24
2022-08-28T12:51:20.475Z,35.34
2022-08-28T12:53:51.338Z,35.39
2022-08-28T12:56:20.942Z,35.23
2022-08-28T12:58:49.321Z,35.32
2022-08-28T13:01:33.194Z,35.28
2022-08-28T13:04:25.236Z,35.34
2022-08-28T13:07:01.966Z,35.35
2022-08-28T13:09:29.530Z,35.36
2022-08-28T13:11:56.938Z,35.26
2022-08-28T13:14:56.315Z,35.26
2022-08-28T13:17:47.059Z,35.12
2022-08-28T13:20:30.815Z,35.03
2022-08-28T13:22:58.575Z,35.11
2022-08-28T13:25:31.275Z,35.15
2022-08-28T13:28:01.675Z,35.20
2022-08-28T13:30:33.762Z,35.24
2022-08-28T13:33:02.102Z,35.33
2022-08-28T13:35:35.936Z,35.37
2022-08-28T13:38:06.696Z,35.32
2022-08-28T13:41:01.123Z,35.21
2022-08-28T13:43:42.452Z,35.23
2022-08-28T13:46:09.509Z,35.20
2022-08-28T13:48:36.530Z,34.81
2022-08-28T13:51:10.440Z,34.97
2022-08-28T13:53:38.736Z,35.00
2022-08-28T13:56:06.488Z,34.98
2022-08-28T13:58:33.524Z,34.84
2022-08-28T14:01:01.389Z,34.85
2022-08-28T14:03:38.124Z,34.87
2022-08-28T14:06:14.286Z,34.59
2022-08-28T14:08:43.830Z,34.71
2022-08-28T14:11:13.306Z,34.72
2022-08-28T14:13:47.360Z,34.75
2022-08-28T14:16:26.218Z,34.67
2022-08-28T14:18:55.650Z,34.72
2022-08-28T14:21:24.758Z,34.60
2022-08-28T14:23:51.819Z,34.58
2022-08-28T14:26:19.194Z,34.53
2022-08-28T14:28:46.255Z,34.54
2022-08-28T14:31:14.815Z,34.51
2022-08-28T14:33:45.207Z,34.47
2022-08-28T14:36:23.833Z,34.46
2022-08-28T14:38:54.587Z,34.27
2022-08-28T14:41:22.601Z,34.17
2022-08-28T14:43:49.892Z,34.13
2022-08-28T14:46:20.680Z,34.13
2022-08-28T14:48:48.549Z,34.08
2022-08-28T14:51:17.048Z,34.06
2022-08-28T14:53:44.940Z,34.04
2022-08-28T14:56:12.179Z,34.04
2022-08-28T14:58:39.542Z,33.88
2022-08-28T15:01:06.938Z,33.96
2022-08-28T15:03:34.408Z,33.88
2022-08-28T15:06:09.429Z,33.90
2022-08-28T15:08:37.430Z,33.81
2022-08-28T15:11:09.409Z,33.73
2022-08-28T15:13:36.487Z,33.65
2022-08-28T15:16:10.460Z,33.64
2022-08-28T15:18:43.716Z,33.60
2022-08-28T15:21:28.440Z,33.54
2022-08-28T15:23:57.906Z,33.48
2022-08-28T15:26:27.087Z,33.31
2022-08-28T15:28:58.487Z,33.35
2022-08-28T15:31:25.602Z,33.30
2022-08-28T15:33:52.675Z,33.22
2022-08-28T15:36:20.461Z,33.14
2022-08-28T15:39:06.372Z,33.09
2022-08-28T15:41:33.410Z,33.03
2022-08-28T15:44:02.329Z,33.02
2022-08-28T15:46:33.774Z,32.98
2022-08-28T15:49:03.178Z,32.95
2022-08-28T15:51:32.593Z,32.86
2022-08-28T15:54:00.724Z,32.78
2022-08-28T15:56:28.316Z,32.66
2022-08-28T15:58:55.333Z,32.55
2022-08-28T16:01:22.806Z,32.46
2022-08-28T16:03:49.996Z,32.37
2022-08-28T16:06:21.756Z,32.26
2022-08-28T16:08:49.800Z,32.18
2022-08-28T16:11:23.153Z,32.06
2022-08-28T16:13:51.753Z,31.96
2022-08-28T16:16:19.654Z,31.85
2022-08-28T16:18:46.730Z,31.78
2022-08-28T16:21:14.808Z,31.65
2022-08-28T16:23:42.079Z,31.54
2022-08-28T16:26:10.898Z,31.43
2022-08-28T16:28:38.239Z,31.27
2022-08-28T16:31:07.308Z,31.19
2022-08-28T16:33:35.968Z,31.02
2022-08-28T16:36:11.238Z,30.91
2022-08-28T16:38:39.424Z,30.74
2022-08-28T16:41:14.332Z,30.74
2022-08-28T16:43:41.403Z,30.66
2022-08-28T16:46:14.263Z,30.57
2022-08-28T16:48:41.283Z,30.49
2022-08-28T16:51:09.513Z,30.40
2022-08-28T16:53:37.162Z,30.34
2022-08-28T16:56:04.437Z,30.28
2022-08-28T16:58:31.532Z,30.21
2022-08-28T17:01:02.180Z,30.13
2022-08-28T17:03:29.561Z,30.04
2022-08-28T17:05:58.197Z,29.90
2022-08-28T17:08:25.238Z,29.82
2022-08-28T17:10:52.286Z,29.72
2022-08-28T17:13:19.166Z,29.66
2022-08-28T17:15:46.120Z,29.55
2022-08-28T17:18:13.301Z,29.48
2022-08-28T17:20:58.644Z,29.34
2022-08-28T17:23:26.294Z,29.29
2022-08-28T17:25:53.197Z,29.20
2022-08-28T17:28:20.262Z,29.16
2022-08-28T17:30:47.291Z,29.03
2022-08-28T17:33:14.267Z,28.94
2022-08-28T17:35:42.200Z,28.86
2022-08-28T17:38:09.353Z,28.70
2022-08-28T17:40:37.029Z,28.55
2022-08-28T17:43:04.082Z,28.50
2022-08-28T17:45:31.072Z,28.45
2022-08-28T17:47:58.358Z,28.43
2022-08-28T17:50:25.427Z,28.40
2022-08-28T17:52:52.703Z,28.35
2022-08-28T17:55:21.221Z,28.31
2022-08-28T17:57:48.239Z,28.27
2022-08-28T18:00:16.688Z,28.24
2022-08-28T18:02:44.527Z,28.18
2022-08-28T18:05:13.717Z,28.14
2022-08-28T18:07:42.167Z,28.08
2022-08-28T18:10:11.832Z,28.02
2022-08-28T18:12:40.083Z,27.98
2022-08-28T18:15:09.734Z,27.92
2022-08-28T18:17:38.662Z,27.86
2022-08-28T18:20:08.510Z,27.79
2022-08-28T18:22:36.100Z,27.70
2022-08-28T18:25:04.597Z,27.64
2022-08-28T18:27:31.844Z,27.58
2022-08-28T18:29:59.276Z,27.55
2022-08-28T18:32:26.606Z,27.44
2022-08-28T18:34:53.667Z,27.41
2022-08-28T18:37:20.751Z,27.32
2022-08-28T18:39:47.685Z,27.27
2022-08-28T18:42:18.807Z,27.16
2022-08-28T18:44:45.769Z,27.10
2022-08-28T18:47:13.055Z,26.97
2022-08-28T18:49:41.551Z,26.85
2022-08-28T18:52:08.654Z,26.87
2022-08-28T18:54:35.809Z,26.90
2022-08-28T18:57:04.302Z,26.82
2022-08-28T18:59:33.452Z,26.91
2022-08-28T19:02:00.904Z,26.75
2022-08-28T19:04:28.083Z,26.76
2022-08-28T19:26:27.914Z,26.78
2022-08-28T19:28:55.401Z,26.80
2022-08-28T19:31:23.399Z,26.81
2022-08-28T19:33:50.783Z,26.80
2022-08-28T19:36:18.815Z,26.83
2022-08-28T19:38:46.146Z,26.72
2022-08-28T19:41:14.395Z,26.77
2022-08-28T19:43:44.190Z,26.79
2022-08-28T19:46:20.014Z,26.80
2022-08-28T19:48:52.066Z,26.81
2022-08-28T19:51:23.253Z,26.83
2022-08-28T19:53:58.172Z,26.81
2022-08-28T19:56:30.075Z,26.83
2022-08-28T19:58:59.459Z,26.70
2022-08-28T20:01:29.966Z,26.66
2022-08-28T20:03:58.313Z,26.51
2022-08-28T20:06:25.387Z,26.46
2022-08-28T20:08:52.479Z,26.40
2022-08-28T20:11:25.353Z,26.34
2022-08-28T20:13:59.204Z,26.28
2022-08-28T20:16:28.225Z,26.32
2022-08-28T20:18:55.902Z,26.35
2022-08-28T20:21:36.892Z,26.38
2022-08-28T20:24:10.504Z,26.41
2022-08-28T20:26:37.703Z,26.45
2022-08-28T20:29:06.921Z,26.45
2022-08-28T20:31:34.825Z,26.39
2022-08-28T20:34:02.023Z,26.44
2022-08-28T20:36:29.362Z,26.48
2022-08-28T20:38:57.124Z,26.46
2022-08-28T20:41:24.040Z,26.47
2022-08-28T20:43:51.052Z,26.49
2022-08-28T20:46:18.216Z,26.52
2022-08-28T20:48:45.535Z,26.49
2022-08-28T20:51:12.994Z,26.52
2022-08-28T20:53:39.994Z,26.47
2022-08-28T20:56:09.684Z,26.50
2022-08-28T20:58:37.121Z,26.54
2022-08-28T21:01:05.678Z,26.54
2022-08-28T21:03:32.879Z,26.59
2022-08-28T21:05:59.893Z,26.61
2022-08-28T21:08:26.790Z,26.59
2022-08-28T21:10:53.893Z,26.57
2022-08-28T21:13:21.776Z,26.55
2022-08-28T21:15:48.775Z,26.52
2022-08-28T21:18:17.914Z,26.50
2022-08-28T21:20:46.055Z,26.49
2022-08-28T21:23:13.075Z,26.50
2022-08-28T21:25:41.591Z,26.42
2022-08-28T21:28:09.043Z,26.44
2022-08-28T21:30:36.724Z,26.42
2022-08-28T21:33:04.183Z,26.40
2022-08-28T21:35:31.933Z,26.42
2022-08-28T21:37:58.948Z,26.41
2022-08-28T21:40:25.869Z,26.41
2022-08-28T21:42:52.852Z,26.37
2022-08-28T21:45:20.211Z,26.35
2022-08-28T21:47:47.562Z,26.35
2022-08-28T21:50:14.832Z,26.32
2022-08-28T21:52:41.711Z,26.25
2022-08-28T21:55:14.488Z,26.23
2022-08-28T21:57:42.004Z,26.24
2022-08-28T22:00:16.035Z,26.19
2022-08-28T22:02:43.525Z,26.17
2022-08-28T22:05:10.771Z,26.11
2022-08-28T22:07:37.915Z,26.05
2022-08-28T22:10:05.714Z,25.99
2022-08-28T22:12:32.994Z,25.78
2022-08-28T22:15:00.425Z,25.81
2022-08-28T22:17:27.474Z,25.76
2022-08-28T22:19:55.262Z,25.75
2022-08-28T22:22:54.674Z,25.62
2022-08-28T22:25:21.795Z,25.57
2022-08-28T22:27:48.974Z,25.54
2022-08-28T22:30:15.894Z,25.50
2022-08-28T22:32:43.351Z,25.43
2022-08-28T22:35:10.921Z,25.44
2022-08-28T22:37:38.032Z,25.24
2022-08-28T22:40:09.554Z,25.09
2022-08-28T22:42:41.662Z,24.80
2022-08-28T22:45:09.791Z,24.79
2022-08-28T22:47:36.845Z,24.73
2022-08-28T22:50:04.793Z,24.79
2022-08-28T22:52:32.111Z,24.67
2022-08-28T22:54:59.259Z,24.73
2022-08-28T22:57:26.121Z,24.74
2022-08-28T22:59:53.142Z,24.69
2022-08-28T23:02:21.631Z,24.67
2022-08-28T23:04:54.055Z,24.67
2022-08-28T23:07:21.131Z,24.67
2022-08-28T23:09:48.204Z,24.54
2022-08-28T23:12:15.172Z,24.55
2022-08-28T23:14:46.459Z,24.59
2022-08-28T23:17:15.245Z,24.52
2022-08-28T23:19:43.938Z,24.67
2022-08-28T23:22:13.398Z,24.63
2022-08-28T23:24:40.643Z,24.61
2022-08-28T23:27:32.449Z,24.58
2022-08-28T23:29:56.312Z,24.59
2022-08-28T23:32:23.337Z,24.52
2022-08-28T23:34:50.945Z,24.53
2022-08-28T23:37:17.947Z,24.50
2022-08-28T23:39:45.138Z,24.52
2022-08-28T23:42:12.031Z,24.50
2022-08-28T23:44:39.329Z,24.50
2022-08-28T23:47:06.274Z,24.49
2022-08-28T23:49:34.317Z,24.41
2022-08-28T23:52:09.562Z,24.46
2022-08-28T23:54:36.992Z,24.46
2022-08-28T23:57:05.315Z,24.43
2022-08-28T23:59:32.790Z,24.39
